« 美ら島エアーフェスタ2018【1日目飛行編】 那覇空港 2018/12/8 sat | トップページ | 美ら島エアーフェスタ2018【1日目基地編】 那覇空港 2018/12/8 sat »

2018/12/17

美ら島エアーフェスタ2018【1日目BI編】 那覇空港 2018/12/8 sat

従来、早朝時間帯に行われていたブルーの予行。今年は、両日開催で本番と同じ時間に実施されました。

ROAH 080600Z 04011KT 9999 FEW020 BKN045 21/15 Q1021 RMK 1CU020 7SC045 A3017

20181208_roah_bi00

こう見ると横から見える位置を開放しているのが、ポイントかも

20181208_roah_bi01

時折、会場のアナウンスが薄く流れても来ます。

20181208_roah_bi02

ラストチャンスで時間待ち

20181208_roah_bi03

ほどなくラインアップ

20181208_roah_bi04

ランナップ スモック

20181208_roah_bi05

20181208_roah_bi06

風が40度なので、島に流れてきました。

20181208_roah_bi07

ダッソーさんも離陸を見守り

ROAH 080630Z 03011KT 360V080 9999 FEW020 BKN045 20/14 Q1021 RMK 1CU020 7SC045 A3017

20181208_roah_bi08

インディビの連続離陸で編隊を作りながら前島へ

20181208_roah_bi09

ドーナッツから

20181208_roah_bi10

20181208_roah_bi11

Eデルタ・ローパス

20181208_roah_bi12

20181208_roah_bi13

20181208_roah_bi14

ポイント・スター・ローパス

20181208_roah_bi15ja8570

JA8570 F900 JCG ブルーの合間にも離着陸が行われています。

20181208_roah_bi16

20181208_roah_bi17

20181208_roah_bi18

リーダーズ・ベネフィット・ローパス

20181208_roah_bi19

20181208_roah_bi20

20181208_roah_bi21

20181208_roah_bi22

クリスマスツリー・ローパス

雲高によりサクラはキャンセル

20181208_roah_bi23

20181208_roah_bi24

20181208_roah_bi25

フェニックス・ローパス

20181208_roah_bi26

編隊離脱して

20181208_roah_bi27

20181208_roah_bi28

オリジナル・レベル・キューピッド

20181208_roah_bi29

視程が悪く会合に苦労するところ

20181208_roah_bi30

5番機単独で

20181208_roah_bi31

セブン・トゥエンティ・ターン

20181208_roah_bi32

レベルオープナーの予定でしたが、トラフィックによりキャンセル

ROAH 080700Z 05009KT 350V080 9999 FEW020 BKN045 20/14 Q1021 RMK 1CU020 7SC045 A3016

20181208_roah_bi33

ライトエシュロンで進入

20181208_roah_bi34

20181208_roah_bi35

ブレイク

20181208_roah_bi36t065745

20181208_roah_bi37t065745

66-5745 T-4 11SQ BI1

20181208_roah_bi38t065745

20181208_roah_bi39t065787

06-5787 T-4 11SQ BI2

20181208_roah_bi40t265692

26-5692 T-4 11SQ BI3

20181208_roah_bi41t265686

26-5686 T-4 11SQ BI4

20181208_roah_bi42t065790

06-5790 T-4 11SQ BI5

20181208_roah_bi43t265690

26-5690 T-4 11SQ BI6

20181208_roah_bi44t265690

全機着陸

20181208_roah_bi45

Aを威風堂々と

20181208_roah_bi46

20181208_roah_bi47

お疲れ様でした。これにて小生は、基地に向かいます。

|

« 美ら島エアーフェスタ2018【1日目飛行編】 那覇空港 2018/12/8 sat | トップページ | 美ら島エアーフェスタ2018【1日目基地編】 那覇空港 2018/12/8 sat »

BI」カテゴリの記事

那覇空港」カテゴリの記事

コメント

コメントを書く



(ウェブ上には掲載しません)


コメントは記事投稿者が公開するまで表示されません。



トラックバック


この記事へのトラックバック一覧です: 美ら島エアーフェスタ2018【1日目BI編】 那覇空港 2018/12/8 sat:

« 美ら島エアーフェスタ2018【1日目飛行編】 那覇空港 2018/12/8 sat | トップページ | 美ら島エアーフェスタ2018【1日目基地編】 那覇空港 2018/12/8 sat »